Time;durP1;ratioP1;P1;durP2;ratioP2;P2;SDS_P1;SDS_P2;PMS_P1;PMS_P2;Temp;Humidity;BMP_temperature;BMP_pressure;BME280_temperature;BME280_humidity;BME280_pressure;Samples;Min_cycle;Max_cycle;Signal;HPM_P1;HPM_P2
2022/10/20 00:00:25;;;;;;;3.10;2.65;;;15.70;99.90;;;;;;5069222;28;20219;-82
2022/10/20 00:02:52;;;;;;;2.70;2.50;;;15.60;99.90;;;;;;5069321;28;20199;-82
2022/10/20 00:05:19;;;;;;;4.07;2.55;;;15.60;99.90;;;;;;5064662;28;20223;-88
2022/10/20 00:07:46;;;;;;;3.05;2.78;;;15.60;99.90;;;;;;5066972;28;20695;-84
2022/10/20 00:10:13;;;;;;;3.10;2.72;;;15.50;99.90;;;;;;5068400;28;20218;-84
2022/10/20 00:12:40;;;;;;;3.47;2.92;;;15.50;99.90;;;;;;5069320;28;20204;-87
2022/10/20 00:15:09;;;;;;;2.78;2.50;;;15.50;99.90;;;;;;5064827;28;20237;-82
2022/10/20 00:17:37;;;;;;;3.40;2.65;;;15.50;99.90;;;;;;5061453;28;20223;-85
2022/10/20 00:20:05;;;;;;;3.28;2.92;;;15.50;99.90;;;;;;5062867;28;20693;-81
2022/10/20 00:22:32;;;;;;;2.80;2.58;;;15.50;99.90;;;;;;5074352;28;20198;-88
2022/10/20 00:24:59;;;;;;;3.13;2.83;;;15.50;99.90;;;;;;5073046;28;20459;-83
2022/10/20 00:27:27;;;;;;;3.08;2.58;;;15.40;99.90;;;;;;5071806;28;20715;-85
2022/10/20 00:29:54;;;;;;;2.80;2.53;;;15.40;99.90;;;;;;5064384;28;20226;-83
2022/10/20 00:32:21;;;;;;;2.83;2.63;;;15.40;99.90;;;;;;5073330;28;20187;-83
2022/10/20 00:34:49;;;;;;;2.80;2.60;;;15.40;99.90;;;;;;5073066;28;20278;-84
2022/10/20 00:37:16;;;;;;;3.03;2.70;;;15.40;99.90;;;;;;5074448;28;20191;-82
2022/10/20 00:39:43;;;;;;;3.22;3.03;;;15.40;99.90;;;;;;5067045;28;20229;-82
2022/10/20 00:42:15;;;;;;;3.92;2.95;;;15.40;99.90;;;;;;5066414;28;21717;-83
2022/10/20 00:45:00;;;;;;;4.00;2.72;;;15.40;99.90;;;;;;5068879;28;20283;-84
2022/10/20 00:47:36;;;;;;;2.80;2.60;;;15.40;99.90;;;;;;5068913;28;20198;-86
2022/10/20 00:50:08;;;;;;;3.00;2.60;;;15.30;99.90;;;;;;5072972;28;20226;-83
2022/10/20 00:52:37;;;;;;;3.53;3.08;;;15.30;99.90;;;;;;5067163;28;20274;-82
2022/10/20 00:55:05;;;;;;;3.30;2.80;;;15.30;99.90;;;;;;5066930;28;20281;-83
2022/10/20 00:57:33;;;;;;;3.95;3.13;;;15.30;99.90;;;;;;5068254;28;20274;-87
2022/10/20 01:00:01;;;;;;;3.00;2.65;;;15.20;99.90;;;;;;5066732;28;20700;-84
2022/10/20 01:02:28;;;;;;;2.80;2.60;;;15.20;99.90;;;;;;5064226;28;20201;-81
2022/10/20 01:04:55;;;;;;;2.90;2.70;;;15.20;99.90;;;;;;5063482;28;20592;-81
2022/10/20 01:07:24;;;;;;;2.75;2.55;;;15.10;99.90;;;;;;5055639;28;20191;-83
2022/10/20 01:09:51;;;;;;;2.75;2.55;;;15.10;99.90;;;;;;5064646;28;21349;-81
2022/10/20 01:12:28;;;;;;;2.97;2.53;;;15.00;99.90;;;;;;5058415;28;20205;-83
2022/10/20 01:15:02;;;;;;;2.78;2.50;;;15.00;99.90;;;;;;5057697;28;20225;-82
2022/10/20 01:17:42;;;;;;;3.03;2.47;;;15.00;99.90;;;;;;5061670;28;20644;-83
2022/10/20 01:20:38;;;;;;;3.42;3.13;;;15.00;99.90;;;;;;5063642;28;20222;-86
2022/10/20 01:23:43;;;;;;;2.88;2.60;;;14.90;99.90;;;;;;5065743;28;20199;-83
2022/10/20 01:26:42;;;;;;;3.30;3.00;;;14.90;99.90;;;;;;5053017;28;20237;-83
2022/10/20 01:29:16;;;;;;;3.05;2.85;;;14.90;99.90;;;;;;5058120;28;20761;-85
2022/10/20 01:31:49;;;;;;;3.47;2.70;;;14.90;99.90;;;;;;5062135;28;20248;-81
2022/10/20 01:34:24;;;;;;;3.30;2.80;;;14.90;99.90;;;;;;5057157;28;20199;-81
2022/10/20 01:36:57;;;;;;;3.35;2.85;;;14.90;99.90;;;;;;5058323;28;20276;-84
2022/10/20 01:39:30;;;;;;;2.38;2.17;;;14.90;99.90;;;;;;5063592;28;20586;-83
2022/10/20 01:42:02;;;;;;;2.92;2.72;;;14.80;99.90;;;;;;5061832;28;20205;-81
2022/10/20 01:44:32;;;;;;;2.63;2.42;;;14.80;99.90;;;;;;5063570;28;20198;-84
2022/10/20 01:47:00;;;;;;;2.83;2.60;;;14.70;99.90;;;;;;5059796;28;20979;-81
2022/10/20 01:49:27;;;;;;;2.60;2.40;;;14.70;99.90;;;;;;5061199;28;20215;-81
2022/10/20 01:51:55;;;;;;;3.15;2.30;;;14.70;99.90;;;;;;5059738;28;20212;-81
2022/10/20 01:54:24;;;;;;;2.80;2.60;;;14.70;99.90;;;;;;5058032;28;20206;-81
2022/10/20 01:57:08;;;;;;;2.78;2.55;;;14.60;99.90;;;;;;5063439;28;20225;-81
2022/10/20 01:59:53;;;;;;;2.65;2.45;;;14.60;99.90;;;;;;5052282;28;20222;-80
2022/10/20 02:02:42;;;;;;;3.08;2.75;;;14.60;99.90;;;;;;5049893;28;20191;-83
2022/10/20 02:05:29;;;;;;;2.85;2.58;;;14.50;99.90;;;;;;5049497;28;20218;-80
2022/10/20 02:08:05;;;;;;;3.13;2.83;;;14.50;99.90;;;;;;5051039;28;20203;-82
2022/10/20 02:10:39;;;;;;;3.83;2.65;;;14.50;99.90;;;;;;5054099;28;20218;-79
2022/10/20 02:13:09;;;;;;;3.08;2.78;;;14.50;99.90;;;;;;5052384;28;20206;-81
2022/10/20 02:15:43;;;;;;;2.92;2.63;;;14.50;99.90;;;;;;5055066;28;20242;-83
2022/10/20 02:18:13;;;;;;;3.17;2.80;;;14.40;99.90;;;;;;5050154;28;20210;-80
2022/10/20 02:20:43;;;;;;;3.50;2.80;;;14.40;99.90;;;;;;5047245;28;20226;-84
2022/10/20 02:23:10;;;;;;;5.95;3.05;;;14.40;99.90;;;;;;5051307;28;20289;-84
2022/10/20 02:25:39;;;;;;;3.72;3.03;;;14.30;99.90;;;;;;5050868;28;20229;-83
2022/10/20 02:28:10;;;;;;;2.88;2.67;;;14.30;99.90;;;;;;5051537;28;20764;-82
2022/10/20 02:30:41;;;;;;;3.35;2.78;;;14.30;99.90;;;;;;5052346;28;20235;-82
2022/10/20 02:33:09;;;;;;;2.90;2.65;;;14.20;99.90;;;;;;5052362;28;20310;-81
2022/10/20 02:35:36;;;;;;;2.88;2.50;;;14.20;99.90;;;;;;5061456;28;20230;-82
2022/10/20 02:38:04;;;;;;;2.78;2.58;;;14.20;99.90;;;;;;5058605;28;20202;-82
2022/10/20 02:40:31;;;;;;;3.00;2.70;;;14.10;99.90;;;;;;5058290;28;20225;-82
2022/10/20 02:42:58;;;;;;;2.72;2.53;;;14.10;99.90;;;;;;5051456;28;20668;-81
2022/10/20 02:45:25;;;;;;;2.80;2.60;;;14.10;99.90;;;;;;5055328;28;20230;-83
2022/10/20 02:47:54;;;;;;;2.95;2.75;;;14.00;99.90;;;;;;5059999;28;20191;-81
2022/10/20 02:50:21;;;;;;;2.90;2.70;;;14.00;99.90;;;;;;5055297;28;20250;-80
2022/10/20 02:52:48;;;;;;;2.70;2.50;;;14.00;99.90;;;;;;5053338;28;20202;-82
2022/10/20 02:55:15;;;;;;;2.80;2.58;;;13.90;99.90;;;;;;5056333;28;20234;-84
2022/10/20 02:57:42;;;;;;;3.13;2.58;;;13.90;99.90;;;;;;5052652;28;20580;-84
2022/10/20 03:00:10;;;;;;;2.92;2.63;;;13.90;99.90;;;;;;5050636;28;20226;-86
2022/10/20 03:02:38;;;;;;;4.03;3.33;;;13.80;99.90;;;;;;5052276;28;20746;-84
2022/10/20 03:05:07;;;;;;;3.05;2.45;;;13.80;99.90;;;;;;5051628;28;20301;-82
2022/10/20 03:07:34;;;;;;;3.10;2.45;;;13.80;99.90;;;;;;5052613;28;20595;-81
2022/10/20 03:10:01;;;;;;;3.60;2.80;;;13.80;99.90;;;;;;5055174;28;20313;-82
2022/10/20 03:12:28;;;;;;;2.78;2.58;;;13.80;99.90;;;;;;5053732;28;20645;-83
2022/10/20 03:14:55;;;;;;;2.75;2.55;;;13.80;99.90;;;;;;5054817;28;20219;-84
2022/10/20 03:17:22;;;;;;;3.00;2.58;;;13.70;99.90;;;;;;5052613;28;20647;-80
2022/10/20 03:19:49;;;;;;;2.50;2.30;;;13.70;99.90;;;;;;5054755;28;20230;-85
2022/10/20 03:22:18;;;;;;;4.20;2.80;;;13.70;99.90;;;;;;5050547;28;20191;-83
2022/10/20 03:24:45;;;;;;;2.42;2.22;;;13.60;99.90;;;;;;5048332;28;20235;-80
2022/10/20 03:27:12;;;;;;;3.08;2.88;;;13.60;99.90;;;;;;5054595;28;20886;-82
2022/10/20 03:29:39;;;;;;;3.10;2.80;;;13.60;99.90;;;;;;5055682;28;20242;-83
2022/10/20 03:32:06;;;;;;;2.80;2.60;;;13.60;99.90;;;;;;5055435;28;20217;-83
2022/10/20 03:34:33;;;;;;;3.35;2.78;;;13.60;99.90;;;;;;5060472;28;20205;-80
2022/10/20 03:37:00;;;;;;;3.33;2.67;;;13.60;99.90;;;;;;5055476;28;20645;-86
2022/10/20 03:39:29;;;;;;;2.72;2.53;;;13.60;99.90;;;;;;5066445;28;20261;-82
2022/10/20 03:41:57;;;;;;;3.15;2.53;;;13.60;99.90;;;;;;5063279;28;20214;-80
2022/10/20 03:44:24;;;;;;;2.90;2.55;;;13.60;99.90;;;;;;5057633;28;20214;-82
2022/10/20 03:46:51;;;;;;;2.63;2.42;;;13.60;99.90;;;;;;5063795;28;20873;-84
2022/10/20 03:49:18;;;;;;;2.80;2.60;;;13.60;99.90;;;;;;5059812;28;20563;-81
2022/10/20 03:51:45;;;;;;;2.90;2.70;;;13.60;99.90;;;;;;5062501;28;20219;-86
2022/10/20 03:54:12;;;;;;;2.50;2.30;;;13.60;99.90;;;;;;5062017;28;20551;-81
2022/10/20 03:56:41;;;;;;;3.10;2.83;;;13.60;99.90;;;;;;5059356;28;20215;-87
2022/10/20 03:59:09;;;;;;;2.90;2.70;;;13.60;99.90;;;;;;5062892;28;20252;-84
2022/10/20 04:01:36;;;;;;;3.10;2.70;;;13.50;99.90;;;;;;5062227;28;20230;-82
2022/10/20 04:04:04;;;;;;;2.58;2.38;;;13.50;99.90;;;;;;5061496;28;20226;-81
2022/10/20 04:06:31;;;;;;;3.08;2.88;;;13.40;99.90;;;;;;5064185;28;20226;-81
2022/10/20 04:08:58;;;;;;;2.20;2.00;;;13.40;99.90;;;;;;5063026;28;20214;-85
2022/10/20 04:11:26;;;;;;;2.80;2.60;;;13.40;99.90;;;;;;5068511;28;20221;-80
2022/10/20 04:13:55;;;;;;;3.15;2.85;;;13.40;99.90;;;;;;5062035;28;20195;-79
2022/10/20 04:16:22;;;;;;;3.08;2.78;;;13.40;99.90;;;;;;5058005;28;20225;-79
2022/10/20 04:18:51;;;;;;;4.90;2.63;;;13.40;99.90;;;;;;5055871;28;20211;-83
2022/10/20 04:21:18;;;;;;;2.80;2.60;;;13.40;99.90;;;;;;5061165;28;20249;-84
2022/10/20 04:23:45;;;;;;;2.80;2.60;;;13.30;99.90;;;;;;5056698;28;20191;-81
2022/10/20 04:26:15;;;;;;;2.55;2.35;;;13.30;99.90;;;;;;5056888;28;20601;-80
2022/10/20 04:28:42;;;;;;;2.95;2.75;;;13.30;99.90;;;;;;5055943;28;20227;-81
2022/10/20 04:31:11;;;;;;;2.78;2.58;;;13.30;99.90;;;;;;5058202;28;20222;-86
2022/10/20 04:33:38;;;;;;;2.70;2.50;;;13.30;99.90;;;;;;5051534;28;20210;-82
2022/10/20 04:36:07;;;;;;;4.18;3.10;;;13.30;99.90;;;;;;5055114;28;20218;-79
2022/10/20 04:38:35;;;;;;;3.00;2.80;;;13.30;99.90;;;;;;5060092;28;20234;-80
2022/10/20 04:41:04;;;;;;;2.70;2.50;;;13.20;99.90;;;;;;5057294;28;20229;-81
2022/10/20 04:43:31;;;;;;;3.10;2.75;;;13.20;99.90;;;;;;5061595;28;20206;-80
2022/10/20 04:46:01;;;;;;;2.70;2.50;;;13.20;99.90;;;;;;5061330;28;20215;-82
2022/10/20 04:48:29;;;;;;;2.90;2.60;;;13.20;99.90;;;;;;5056823;28;20230;-87
2022/10/20 04:51:01;;;;;;;2.78;2.47;;;13.20;99.90;;;;;;5058020;28;20211;-80
2022/10/20 04:53:28;;;;;;;2.45;2.25;;;13.20;99.90;;;;;;5058408;28;20482;-82
2022/10/20 04:55:56;;;;;;;2.80;2.60;;;13.20;99.90;;;;;;5060704;28;20229;-80
2022/10/20 04:58:23;;;;;;;3.53;2.70;;;13.20;99.90;;;;;;5057660;28;20219;-81
2022/10/20 05:00:50;;;;;;;2.63;2.42;;;13.10;99.90;;;;;;5054747;28;20222;-86
2022/10/20 05:03:18;;;;;;;2.88;2.67;;;13.10;99.90;;;;;;5059400;28;20187;-81
2022/10/20 05:05:46;;;;;;;2.78;2.50;;;13.10;99.90;;;;;;5058393;28;20214;-79
2022/10/20 05:08:13;;;;;;;3.00;2.80;;;13.00;99.90;;;;;;5059382;28;20225;-81
2022/10/20 05:10:41;;;;;;;2.78;2.55;;;13.00;99.90;;;;;;5059846;28;20214;-80
2022/10/20 05:13:08;;;;;;;2.80;2.60;;;13.00;99.90;;;;;;5059304;28;20290;-80
2022/10/20 05:15:35;;;;;;;2.85;2.65;;;12.90;99.90;;;;;;5057643;28;20490;-81
2022/10/20 05:18:02;;;;;;;2.80;2.60;;;12.90;99.90;;;;;;5054903;28;20198;-82
2022/10/20 05:20:29;;;;;;;2.90;2.65;;;12.80;99.90;;;;;;5059857;28;20231;-83
2022/10/20 05:22:58;;;;;;;3.50;2.33;;;12.80;99.90;;;;;;5057791;28;20195;-80
2022/10/20 05:25:25;;;;;;;2.58;2.38;;;12.90;99.90;;;;;;5059299;28;20230;-86
2022/10/20 05:27:52;;;;;;;4.65;2.70;;;12.90;99.90;;;;;;5058499;28;20199;-81
2022/10/20 05:30:19;;;;;;;3.97;2.67;;;12.90;99.90;;;;;;5055489;28;20211;-81
2022/10/20 05:32:47;;;;;;;3.13;2.88;;;12.90;99.90;;;;;;5060731;28;20198;-81
2022/10/20 05:35:14;;;;;;;2.72;2.45;;;12.90;99.90;;;;;;5058484;28;20269;-82
2022/10/20 05:37:41;;;;;;;3.00;2.72;;;12.90;99.90;;;;;;5059735;28;20443;-80
2022/10/20 05:40:11;;;;;;;3.05;2.70;;;12.90;99.90;;;;;;5058771;28;20237;-81
2022/10/20 05:42:38;;;;;;;2.90;2.70;;;12.90;99.90;;;;;;5065462;28;20210;-82
2022/10/20 05:45:06;;;;;;;2.92;2.72;;;12.90;99.90;;;;;;5064274;28;20219;-82
2022/10/20 05:47:34;;;;;;;2.83;2.47;;;12.90;99.90;;;;;;5062703;28;20256;-83
2022/10/20 05:50:01;;;;;;;3.20;2.65;;;13.00;99.90;;;;;;5061598;28;20222;-82
2022/10/20 05:52:28;;;;;;;3.28;2.63;;;13.00;99.90;;;;;;5065065;28;20201;-81
2022/10/20 05:54:55;;;;;;;3.15;2.10;;;13.00;99.90;;;;;;5054847;28;20226;-82
2022/10/20 05:57:23;;;;;;;3.00;2.80;;;13.00;99.90;;;;;;5055701;28;20681;-83
2022/10/20 05:59:50;;;;;;;3.55;2.42;;;13.00;99.90;;;;;;5063621;28;20237;-84
2022/10/20 06:02:18;;;;;;;3.10;2.80;;;13.00;99.90;;;;;;5060055;28;20206;-85
2022/10/20 06:04:45;;;;;;;3.55;3.08;;;13.00;99.90;;;;;;5065781;28;20229;-81
2022/10/20 06:07:12;;;;;;;3.67;2.80;;;13.00;99.90;;;;;;5051398;28;20201;-81
2022/10/20 06:09:39;;;;;;;3.05;2.85;;;13.00;99.90;;;;;;5053916;28;20223;-82
2022/10/20 06:12:07;;;;;;;3.05;2.75;;;13.00;99.90;;;;;;5052815;28;20191;-80
2022/10/20 06:14:35;;;;;;;3.00;2.20;;;13.10;99.90;;;;;;5055851;28;20205;-84
2022/10/20 06:17:02;;;;;;;4.22;2.70;;;13.10;99.90;;;;;;5049386;28;20202;-83
2022/10/20 06:19:30;;;;;;;2.85;2.65;;;13.10;99.90;;;;;;5050808;28;20223;-80
2022/10/20 06:21:58;;;;;;;3.28;2.65;;;13.20;99.90;;;;;;5049101;28;20222;-81
2022/10/20 06:24:25;;;;;;;4.05;2.50;;;13.30;99.90;;;;;;5048918;28;20190;-84
2022/10/20 06:26:52;;;;;;;6.28;3.33;;;13.40;99.90;;;;;;5053902;28;20208;-83
2022/10/20 06:29:20;;;;;;;3.13;2.78;;;13.40;99.90;;;;;;5054509;28;20976;-81
2022/10/20 06:31:50;;;;;;;3.55;2.58;;;13.50;99.90;;;;;;5053357;28;20688;-85
2022/10/20 06:34:20;;;;;;;3.78;2.92;;;13.50;99.90;;;;;;5048413;28;20206;-83
2022/10/20 06:36:48;;;;;;;3.63;2.80;;;13.50;99.90;;;;;;5048774;28;20218;-80
2022/10/20 06:39:17;;;;;;;3.28;2.53;;;13.60;99.90;;;;;;5054553;28;20215;-83
2022/10/20 06:41:49;;;;;;;3.05;2.58;;;13.60;99.90;;;;;;5052856;28;20221;-79
2022/10/20 06:44:16;;;;;;;4.60;2.88;;;13.70;99.90;;;;;;5055251;28;20673;-83
2022/10/20 06:46:44;;;;;;;3.30;3.00;;;13.70;99.90;;;;;;5066454;28;20218;-89
2022/10/20 06:49:13;;;;;;;2.88;2.67;;;13.80;99.90;;;;;;5057866;28;20222;-83
2022/10/20 06:51:41;;;;;;;3.15;2.85;;;13.90;99.90;;;;;;5059937;28;20250;-84
2022/10/20 06:54:08;;;;;;;4.97;2.88;;;14.00;99.90;;;;;;5056067;28;20202;-81
2022/10/20 06:56:36;;;;;;;3.15;2.60;;;14.10;99.90;;;;;;5054796;28;20226;-87
2022/10/20 06:59:04;;;;;;;2.70;2.50;;;14.40;99.90;;;;;;5053285;28;20761;-86
2022/10/20 07:01:33;;;;;;;2.75;2.55;;;14.80;99.90;;;;;;5062095;28;20241;-86
2022/10/20 07:04:02;;;;;;;2.75;2.53;;;15.30;99.90;;;;;;5056041;28;20198;-86
2022/10/20 07:06:32;;;;;;;3.63;3.20;;;15.80;99.90;;;;;;5063169;28;20642;-83
2022/10/20 07:09:02;;;;;;;5.00;3.17;;;16.40;99.90;;;;;;5057196;28;20215;-87
2022/10/20 07:11:31;;;;;;;3.53;2.72;;;17.00;99.90;;;;;;5060890;28;20213;-82
2022/10/20 07:13:59;;;;;;;3.25;2.83;;;17.20;99.90;;;;;;5061083;28;20209;-84
2022/10/20 07:16:28;;;;;;;5.93;3.00;;;17.40;99.90;;;;;;5062922;28;20233;-87
2022/10/20 07:18:56;;;;;;;4.55;3.67;;;17.50;99.90;;;;;;5058662;28;20230;-82
2022/10/20 07:21:25;;;;;;;3.78;3.30;;;17.60;99.90;;;;;;5068404;28;20226;-86
2022/10/20 07:23:56;;;;;;;4.70;3.08;;;17.40;99.90;;;;;;5059012;28;20229;-88
2022/10/20 07:26:24;;;;;;;3.70;3.22;;;17.50;99.90;;;;;;5062101;28;20227;-82
2022/10/20 07:28:53;;;;;;;5.68;2.97;;;17.80;99.90;;;;;;5063544;28;20215;-88
2022/10/20 07:31:22;;;;;;;3.20;2.83;;;18.10;99.90;;;;;;5070981;28;20225;-85
2022/10/20 07:33:49;;;;;;;3.40;2.70;;;18.40;99.90;;;;;;5066203;28;20206;-88
2022/10/20 07:36:19;;;;;;;4.95;3.20;;;18.90;99.90;;;;;;5058573;28;20222;-86
2022/10/20 07:38:47;;;;;;;3.65;2.72;;;19.10;99.90;;;;;;5069954;28;20230;-87
2022/10/20 07:41:17;;;;;;;2.92;2.63;;;19.40;99.90;;;;;;5085187;28;20313;-81
2022/10/20 07:43:44;;;;;;;3.58;3.08;;;19.80;99.90;;;;;;5082893;28;20250;-82
2022/10/20 07:46:15;;;;;;;5.28;3.28;;;20.30;99.90;;;;;;5066853;28;20218;-80
2022/10/20 07:48:45;;;;;;;5.53;3.13;;;20.50;99.90;;;;;;5076201;28;20210;-80
2022/10/20 07:54:06;;;;;;;4.07;2.95;;;20.50;99.90;;;;;;5057109;28;20196;-81
2022/10/20 07:56:44;;;;;;;4.32;3.08;;;20.40;99.90;;;;;;5050760;28;20225;-80
2022/10/20 07:59:19;;;;;;;4.88;3.17;;;20.50;99.90;;;;;;5068531;28;20223;-80
2022/10/20 08:44:36;;;;;;;5.57;3.10;;;21.90;99.90;;;;;;5100316;28;20217;-72
2022/10/20 08:47:13;;;;;;;5.47;2.80;;;21.70;99.90;;;;;;5096244;28;20201;-72
2022/10/20 08:49:40;;;;;;;4.35;3.00;;;21.70;99.90;;;;;;5086846;28;20786;-72
2022/10/20 08:52:13;;;;;;;7.13;3.47;;;21.60;99.90;;;;;;5080593;28;20285;-72
2022/10/20 08:54:40;;;;;;;5.72;3.47;;;21.40;99.90;;;;;;5087041;28;20217;-72
2022/10/20 08:57:20;;;;;;;4.40;2.90;;;21.30;99.90;;;;;;5083265;28;20208;-73
2022/10/20 08:59:52;;;;;;;3.47;3.00;;;21.20;99.90;;;;;;5080670;28;20221;-71
2022/10/20 09:02:20;;;;;;;3.70;2.97;;;21.20;99.90;;;;;;5083675;28;20490;-71
2022/10/20 09:04:51;;;;;;;4.85;3.28;;;21.10;99.90;;;;;;5083573;28;20244;-71
2022/10/20 09:07:26;;;;;;;4.22;2.90;;;21.10;99.90;;;;;;5082590;28;20197;-71
2022/10/20 09:09:55;;;;;;;6.45;3.50;;;20.90;99.90;;;;;;5078147;28;20244;-71
2022/10/20 09:12:22;;;;;;;5.97;3.15;;;20.90;99.90;;;;;;5079397;28;20186;-71
2022/10/20 09:14:51;;;;;;;4.93;3.17;;;21.00;99.90;;;;;;5078866;28;20229;-71
2022/10/20 09:17:19;;;;;;;6.22;3.35;;;21.10;99.90;;;;;;5080373;28;20201;-71
2022/10/20 09:19:52;;;;;;;4.03;3.17;;;21.30;99.90;;;;;;5073336;28;20235;-71
2022/10/20 09:22:28;;;;;;;3.42;3.00;;;21.60;99.90;;;;;;5077994;28;20221;-72
2022/10/20 09:24:58;;;;;;;5.65;3.28;;;21.80;99.90;;;;;;5074663;28;20243;-72
2022/10/20 09:27:32;;;;;;;3.80;2.70;;;21.70;99.90;;;;;;5076852;28;20648;-72
2022/10/20 09:30:14;;;;;;;3.55;3.25;;;21.70;99.90;;;;;;5077018;28;20236;-72
2022/10/20 09:32:42;;;;;;;3.70;3.00;;;21.90;99.90;;;;;;5076554;28;20570;-72
2022/10/20 09:35:27;;;;;;;3.30;2.97;;;21.70;99.90;;;;;;5077969;28;20736;-71
2022/10/20 09:37:59;;;;;;;6.47;3.05;;;21.30;99.90;;;;;;5075501;28;20196;-71
2022/10/20 09:40:27;;;;;;;3.38;2.92;;;21.40;99.90;;;;;;5076099;28;20727;-71
2022/10/20 09:42:57;;;;;;;6.05;3.17;;;21.40;99.90;;;;;;5080751;28;20225;-72
2022/10/20 09:45:29;;;;;;;6.28;3.08;;;21.30;99.90;;;;;;5064279;28;20278;-72
2022/10/20 09:48:02;;;;;;;5.28;3.03;;;21.50;99.90;;;;;;5080540;28;20205;-71
2022/10/20 09:50:32;;;;;;;6.05;3.22;;;21.40;99.90;;;;;;5079724;28;20217;-72
2022/10/20 09:53:02;;;;;;;5.20;2.90;;;21.20;99.90;;;;;;5081542;28;20190;-71
2022/10/20 09:55:34;;;;;;;3.40;2.88;;;21.20;99.90;;;;;;5083888;28;20213;-71
2022/10/20 09:58:05;;;;;;;5.75;3.25;;;21.00;99.90;;;;;;5098511;28;20193;-71
2022/10/20 10:00:36;;;;;;;4.90;2.78;;;20.80;99.90;;;;;;5075321;28;20239;-71
2022/10/20 10:03:21;;;;;;;4.20;2.83;;;20.80;99.90;;;;;;5079739;28;20624;-71
2022/10/20 10:05:53;;;;;;;3.78;3.00;;;20.90;99.90;;;;;;5080983;28;20253;-71
2022/10/20 10:08:21;;;;;;;3.10;2.75;;;21.00;99.90;;;;;;5075861;28;20197;-71
2022/10/20 10:10:59;;;;;;;4.90;3.35;;;21.10;99.90;;;;;;5077337;28;20221;-71
2022/10/20 10:13:30;;;;;;;4.07;2.65;;;21.30;99.90;;;;;;5075378;28;20192;-71
2022/10/20 10:16:06;;;;;;;3.50;3.20;;;21.50;99.90;;;;;;5079399;28;20217;-71
2022/10/20 10:18:35;;;;;;;8.95;3.35;;;21.50;99.90;;;;;;5078797;28;20357;-71
2022/10/20 10:21:06;;;;;;;4.40;3.33;;;21.80;99.90;;;;;;5077899;28;21172;-72
2022/10/20 10:23:35;;;;;;;8.00;3.35;;;22.10;99.90;;;;;;5076489;28;20198;-71
2022/10/20 10:26:04;;;;;;;5.63;3.22;;;22.40;99.90;;;;;;5075701;28;20687;-72
2022/10/20 10:28:36;;;;;;;6.10;3.40;;;22.50;99.90;;;;;;5078174;28;20278;-72
2022/10/20 10:31:19;;;;;;;4.25;3.35;;;22.60;99.90;;;;;;5081416;28;20221;-72
2022/10/20 10:33:46;;;;;;;4.03;3.40;;;22.70;99.90;;;;;;5078573;28;20202;-71
2022/10/20 10:36:21;;;;;;;5.13;3.53;;;22.70;99.90;;;;;;5076847;28;20756;-71
2022/10/20 10:38:48;;;;;;;3.47;2.67;;;22.60;99.90;;;;;;5078621;28;20225;-72
2022/10/20 10:41:24;;;;;;;5.20;3.00;;;22.60;99.90;;;;;;5072639;28;20225;-73
2022/10/20 10:44:00;;;;;;;5.45;3.08;;;22.60;99.90;;;;;;5072382;28;20206;-72
2022/10/20 10:46:35;;;;;;;4.78;3.33;;;22.80;99.90;;;;;;5074082;28;20233;-71
2022/10/20 10:49:29;;;;;;;5.25;3.22;;;22.70;99.90;;;;;;5082072;28;20216;-71
2022/10/20 10:52:06;;;;;;;3.97;2.97;;;22.70;99.90;;;;;;5083396;28;20213;-71
2022/10/20 10:54:49;;;;;;;3.65;3.15;;;22.80;99.90;;;;;;5060227;28;20205;-71
2022/10/20 10:57:29;;;;;;;5.28;3.25;;;22.70;99.90;;;;;;5075927;28;21893;-71
2022/10/20 10:59:59;;;;;;;4.03;2.83;;;22.60;99.90;;;;;;5080592;28;20213;-71
2022/10/20 11:03:00;;;;;;;4.15;2.78;;;22.10;99.90;;;;;;5075075;28;20226;-71
2022/10/20 11:05:46;;;;;;;4.38;2.78;;;21.50;99.90;;;;;;5075346;28;20249;-68
2022/10/20 11:08:22;;;;;;;3.30;2.53;;;21.10;99.90;;;;;;5079093;28;20944;-68
2022/10/20 11:11:00;;;;;;;3.22;2.42;;;20.90;99.90;;;;;;5072856;28;20225;-69
2022/10/20 11:13:33;;;;;;;4.88;3.08;;;20.80;99.90;;;;;;5078450;28;20202;-69
2022/10/20 11:16:09;;;;;;;2.85;2.60;;;20.60;99.90;;;;;;5076868;28;20213;-69
2022/10/20 11:19:01;;;;;;;6.25;3.33;;;20.60;99.90;;;;;;5076882;28;20229;-69
2022/10/20 11:21:38;;;;;;;4.30;2.70;;;20.70;99.90;;;;;;5081801;28;20958;-69
2022/10/20 11:24:25;;;;;;;3.03;2.63;;;20.80;99.90;;;;;;5080256;28;20931;-68
2022/10/20 11:26:59;;;;;;;3.72;2.70;;;21.00;99.90;;;;;;5076896;28;20221;-69
2022/10/20 11:29:33;;;;;;;7.38;2.50;;;20.90;99.90;;;;;;5071065;28;21598;-68
2022/10/20 11:32:10;;;;;;;4.15;2.80;;;20.80;99.90;;;;;;5075817;28;20202;-68
2022/10/20 11:34:46;;;;;;;3.08;2.78;;;20.80;99.90;;;;;;5076260;28;20193;-68
2022/10/20 11:37:22;;;;;;;4.18;2.40;;;21.00;99.90;;;;;;5078694;28;20193;-69
2022/10/20 11:39:55;;;;;;;5.40;3.30;;;21.40;99.90;;;;;;5075727;28;20752;-68
2022/10/20 11:42:30;;;;;;;4.38;2.97;;;21.70;99.90;;;;;;5076975;28;20335;-68
2022/10/20 11:45:01;;;;;;;3.35;3.05;;;21.60;99.90;;;;;;5078065;28;20232;-69
2022/10/20 11:47:36;;;;;;;3.78;3.00;;;21.50;99.90;;;;;;5073341;28;20198;-69
2022/10/20 11:50:10;;;;;;;5.97;3.08;;;21.70;99.90;;;;;;5076482;28;20217;-68
2022/10/20 11:53:08;;;;;;;7.45;3.10;;;21.90;99.90;;;;;;5076267;28;20846;-69
2022/10/20 11:55:46;;;;;;;4.22;3.33;;;21.90;99.90;;;;;;5073403;28;20221;-69
2022/10/20 11:58:26;;;;;;;4.15;3.20;;;22.00;99.90;;;;;;5081120;28;20193;-69
2022/10/20 12:01:17;;;;;;;4.30;2.58;;;22.10;99.90;;;;;;5077415;28;20229;-69
2022/10/20 12:04:16;;;;;;;4.90;2.78;;;22.10;99.90;;;;;;5075679;28;20218;-68
2022/10/20 12:07:25;;;;;;;4.25;2.85;;;21.90;99.90;;;;;;5081019;28;20224;-69
2022/10/20 12:10:14;;;;;;;3.63;3.13;;;21.70;99.90;;;;;;5074318;28;20233;-69
2022/10/20 12:12:51;;;;;;;3.50;3.20;;;21.60;99.90;;;;;;5080400;28;20229;-68
2022/10/20 12:15:22;;;;;;;4.18;2.70;;;21.60;99.90;;;;;;5080369;28;20631;-69
2022/10/20 12:17:50;;;;;;;4.72;2.78;;;21.60;99.90;;;;;;5084943;28;20548;-69
2022/10/20 12:20:50;;;;;;;5.13;3.50;;;21.60;99.90;;;;;;5075216;28;20248;-69
2022/10/20 12:24:01;;;;;;;3.85;2.80;;;21.50;99.90;;;;;;5083053;28;20695;-69
2022/10/20 12:27:05;;;;;;;3.05;2.70;;;21.50;99.90;;;;;;5078767;28;20748;-69
2022/10/20 12:30:05;;;;;;;3.47;3.17;;;21.40;99.90;;;;;;5076945;28;20217;-69
2022/10/20 12:32:59;;;;;;;3.42;2.30;;;21.30;99.90;;;;;;5092264;28;20209;-68
2022/10/20 12:36:02;;;;;;;3.03;2.67;;;21.20;99.90;;;;;;5084689;28;20309;-69
2022/10/20 12:38:31;;;;;;;2.50;2.30;;;21.00;99.90;;;;;;5080302;28;20228;-69
2022/10/20 12:41:02;;;;;;;3.60;2.50;;;20.80;99.90;;;;;;5076773;28;20262;-68
2022/10/20 12:43:47;;;;;;;3.00;2.70;;;20.80;99.90;;;;;;5074907;28;20222;-68
2022/10/20 12:46:21;;;;;;;4.35;2.22;;;20.80;99.90;;;;;;5076359;28;21950;-68
2022/10/20 12:48:56;;;;;;;3.75;2.80;;;20.90;99.90;;;;;;5074164;28;20213;-68
2022/10/20 12:51:39;;;;;;;3.28;2.70;;;20.90;99.90;;;;;;5072083;28;20304;-68
2022/10/20 12:54:18;;;;;;;2.60;2.40;;;20.90;99.90;;;;;;5073940;28;20190;-69
2022/10/20 12:56:46;;;;;;;3.70;2.90;;;20.90;99.90;;;;;;5076691;28;20209;-69
2022/10/20 12:59:45;;;;;;;3.20;2.70;;;20.80;99.90;;;;;;5072623;28;21231;-68
2022/10/20 13:02:48;;;;;;;3.35;2.65;;;20.90;99.90;;;;;;5080236;28;20217;-69
2022/10/20 13:05:54;;;;;;;2.50;2.30;;;20.80;99.90;;;;;;5079781;28;20213;-69
2022/10/20 13:08:27;;;;;;;2.97;2.60;;;20.80;99.90;;;;;;5074663;28;20718;-69
2022/10/20 13:10:55;;;;;;;2.92;2.58;;;20.70;99.90;;;;;;5076932;28;20224;-69
2022/10/20 13:13:45;;;;;;;2.58;2.38;;;20.50;99.90;;;;;;5078118;28;20208;-68
2022/10/20 13:16:19;;;;;;;2.60;2.40;;;20.40;99.90;;;;;;5080580;28;20222;-69
2022/10/20 13:18:50;;;;;;;3.17;2.80;;;20.40;99.90;;;;;;5082187;28;20737;-71
2022/10/20 13:21:33;;;;;;;2.53;2.33;;;20.50;99.90;;;;;;5077948;28;20391;-70
2022/10/20 13:24:16;;;;;;;3.38;2.22;;;20.60;99.90;;;;;;5080713;28;20226;-72
2022/10/20 13:26:50;;;;;;;4.00;2.90;;;20.60;99.90;;;;;;5081552;28;20221;-71
2022/10/20 13:29:23;;;;;;;3.92;2.60;;;20.70;99.90;;;;;;5080536;28;20209;-72
2022/10/20 13:32:06;;;;;;;3.72;2.45;;;20.70;99.90;;;;;;5081185;28;20228;-71
2022/10/20 13:34:42;;;;;;;5.35;3.10;;;20.60;99.90;;;;;;5079212;28;20200;-72
2022/10/20 13:37:24;;;;;;;2.90;2.60;;;20.60;99.90;;;;;;5079749;28;20205;-71
2022/10/20 13:40:00;;;;;;;2.80;2.45;;;20.60;99.90;;;;;;5081954;28;20261;-69
2022/10/20 13:42:45;;;;;;;3.70;2.80;;;20.70;99.90;;;;;;5080124;28;20225;-69
2022/10/20 13:45:24;;;;;;;4.40;3.22;;;20.70;99.90;;;;;;5082755;28;20213;-69
2022/10/20 13:48:01;;;;;;;6.40;2.80;;;20.70;99.90;;;;;;5082653;28;20198;-70
2022/10/20 13:50:33;;;;;;;2.60;2.40;;;20.60;99.90;;;;;;5079628;28;20246;-69
2022/10/20 13:53:05;;;;;;;3.38;2.85;;;20.50;99.90;;;;;;5085180;28;20799;-69
2022/10/20 13:55:55;;;;;;;4.32;2.78;;;20.40;99.90;;;;;;5081611;28;20590;-70
2022/10/20 13:58:24;;;;;;;6.32;2.70;;;20.20;99.90;;;;;;5083233;28;20190;-70
2022/10/20 14:01:03;;;;;;;2.80;2.30;;;20.20;99.90;;;;;;5079362;28;20220;-69